createdAt,value
2023-01-10T00:02:24.795Z,1.45
2023-01-10T00:06:26.456Z,1.70
2023-01-10T00:10:28.681Z,1.48
2023-01-10T00:14:30.364Z,1.58
2023-01-10T00:18:31.900Z,1.48
2023-01-10T00:22:33.472Z,1.83
2023-01-10T00:26:35.010Z,1.45
2023-01-10T00:30:39.830Z,1.40
2023-01-10T00:34:41.362Z,1.58
2023-01-10T00:38:42.891Z,1.30
2023-01-10T00:43:03.251Z,1.25
2023-01-10T00:47:04.823Z,1.33
2023-01-10T00:51:06.408Z,1.00
2023-01-10T00:55:08.523Z,0.90
2023-01-10T00:59:10.142Z,0.70
2023-01-10T01:03:12.466Z,1.10
2023-01-10T01:07:13.987Z,0.70
2023-01-10T01:11:15.532Z,0.57
2023-01-10T01:15:17.206Z,0.88
2023-01-10T01:19:19.337Z,0.77
2023-01-10T01:23:20.979Z,0.70
2023-01-10T01:27:22.523Z,0.55
2023-01-10T01:31:24.154Z,0.45
2023-01-10T01:35:25.761Z,0.50
2023-01-10T01:39:27.268Z,0.50
2023-01-10T01:43:31.973Z,0.55
2023-01-10T01:47:38.875Z,0.80
2023-01-10T01:51:40.632Z,0.50
2023-01-10T01:55:43.875Z,0.40
2023-01-10T01:59:48.694Z,0.30
2023-01-10T02:03:56.282Z,0.50
2023-01-10T02:07:59.709Z,0.50
2023-01-10T02:12:02.416Z,0.40
2023-01-10T02:16:04.425Z,0.40
2023-01-10T02:20:09.280Z,0.50
2023-01-10T02:24:16.740Z,0.38
2023-01-10T02:29:08.018Z,0.35
2023-01-10T02:33:12.211Z,0.40
2023-01-10T02:37:25.919Z,0.40
2023-01-10T02:41:48.484Z,0.70
2023-01-10T02:45:52.583Z,0.60
2023-01-10T02:49:54.176Z,0.50
2023-01-10T02:53:59.522Z,0.70
2023-01-10T02:58:16.428Z,0.82
2023-01-10T03:02:22.432Z,0.88
2023-01-10T03:06:52.437Z,0.70
2023-01-10T03:11:02.948Z,0.63
2023-01-10T03:15:06.321Z,1.20
2023-01-10T03:19:12.685Z,0.90
2023-01-10T03:23:16.362Z,1.25
2023-01-10T03:27:32.684Z,0.95
2023-01-10T03:31:45.942Z,0.90
2023-01-10T03:35:53.399Z,1.00
2023-01-10T03:40:18.856Z,0.65
2023-01-10T03:45:05.017Z,1.10
2023-01-10T03:49:08.247Z,1.13
2023-01-10T03:53:13.001Z,1.00
2023-01-10T03:57:19.312Z,0.90
2023-01-10T04:01:20.949Z,0.90
2023-01-10T04:05:22.573Z,1.00
2023-01-10T04:09:24.107Z,1.60
2023-01-10T04:13:25.650Z,0.63
2023-01-10T04:17:27.570Z,1.52
2023-01-10T04:21:29.116Z,1.38
2023-01-10T04:25:30.912Z,0.90
2023-01-10T04:29:33.035Z,1.30
2023-01-10T04:33:34.611Z,0.95
2023-01-10T04:37:36.375Z,0.95
2023-01-10T04:41:38.170Z,0.90
2023-01-10T04:45:39.706Z,1.13
2023-01-10T04:49:41.303Z,1.17
2023-01-10T04:53:42.900Z,1.10
2023-01-10T04:57:44.519Z,1.13
2023-01-10T05:01:46.083Z,1.27
2023-01-10T05:05:47.689Z,1.33
2023-01-10T05:09:49.257Z,1.35
2023-01-10T05:13:51.041Z,1.45
2023-01-10T05:17:58.582Z,1.35
2023-01-10T05:22:00.135Z,1.50
2023-01-10T05:26:10.034Z,1.58
2023-01-10T05:30:12.842Z,1.58
2023-01-10T05:34:14.406Z,1.92
2023-01-10T05:38:15.986Z,1.95
2023-01-10T05:42:17.544Z,1.33
2023-01-10T05:46:19.111Z,1.70
2023-01-10T05:50:20.665Z,1.38
2023-01-10T05:54:22.201Z,1.83
2023-01-10T05:58:24.377Z,1.60
2023-01-10T06:02:28.458Z,2.30
2023-01-10T06:06:31.698Z,1.73
2023-01-10T06:10:33.260Z,1.67
2023-01-10T06:14:35.792Z,1.95
2023-01-10T06:18:37.359Z,2.00
2023-01-10T06:22:41.763Z,2.63
2023-01-10T06:26:43.336Z,2.40
2023-01-10T06:30:44.998Z,2.38
2023-01-10T06:34:46.989Z,1.83
2023-01-10T06:38:48.651Z,1.95
2023-01-10T06:42:50.503Z,2.20
2023-01-10T06:46:52.017Z,1.92
2023-01-10T06:50:53.607Z,1.98
2023-01-10T06:54:55.134Z,1.95
2023-01-10T06:58:57.435Z,2.35
2023-01-10T07:02:59.990Z,2.35
2023-01-10T07:07:01.559Z,2.50
2023-01-10T07:11:03.331Z,1.98
2023-01-10T07:15:08.266Z,1.83
2023-01-10T07:19:09.868Z,1.97
2023-01-10T07:23:11.559Z,2.30
2023-01-10T07:27:13.220Z,2.45
2023-01-10T07:31:16.502Z,2.83
2023-01-10T07:35:18.125Z,3.22
2023-01-10T07:39:19.670Z,2.58
2023-01-10T07:43:21.608Z,3.38
2023-01-10T07:47:23.290Z,2.75
2023-01-10T07:51:24.892Z,3.00
2023-01-10T07:59:30.723Z,2.22
2023-01-10T08:03:33.371Z,3.42
2023-01-10T08:07:35.093Z,3.00
2023-01-10T08:11:40.716Z,3.00
2023-01-10T08:15:45.634Z,3.20
2023-01-10T08:19:47.318Z,3.00
2023-01-10T08:23:48.892Z,3.38
2023-01-10T08:27:50.809Z,3.13
2023-01-10T08:31:53.297Z,3.30
2023-01-10T08:35:55.628Z,4.03
2023-01-10T08:39:57.239Z,3.83
2023-01-10T08:43:58.857Z,3.50
2023-01-10T08:48:02.410Z,3.17
2023-01-10T08:52:04.174Z,2.75
2023-01-10T08:56:09.297Z,3.30
2023-01-10T09:00:13.854Z,3.42
2023-01-10T09:04:17.521Z,4.10
2023-01-10T09:08:22.301Z,3.05
2023-01-10T09:12:56.032Z,4.10
2023-01-10T09:16:57.935Z,2.80
2023-01-10T09:20:59.873Z,2.90
2023-01-10T09:25:01.769Z,2.85
2023-01-10T09:29:05.514Z,3.13
2023-01-10T09:33:07.451Z,2.38
2023-01-10T09:37:09.157Z,2.40
2023-01-10T09:41:31.169Z,2.78
2023-01-10T09:45:51.954Z,2.30
2023-01-10T09:50:17.918Z,3.03
2023-01-10T09:54:40.276Z,2.45
2023-01-10T09:58:43.795Z,2.30
2023-01-10T10:02:49.889Z,2.35
2023-01-10T10:06:52.228Z,2.17
2023-01-10T10:11:28.146Z,1.65
2023-01-10T10:15:41.587Z,2.30
2023-01-10T10:20:00.171Z,1.92
2023-01-10T10:24:47.662Z,2.30
2023-01-10T10:29:18.466Z,2.38
2023-01-10T10:33:38.081Z,2.40
2023-01-10T10:37:48.813Z,3.17
2023-01-10T10:41:53.619Z,2.65
2023-01-10T10:46:10.355Z,3.58
2023-01-10T10:50:19.647Z,2.70
2023-01-10T10:54:21.764Z,2.60
2023-01-10T10:58:23.939Z,2.33
2023-01-10T11:02:33.289Z,2.78
2023-01-10T11:06:38.661Z,2.85
2023-01-10T11:10:43.064Z,2.38
2023-01-10T11:14:48.594Z,2.63
2023-01-10T11:19:11.523Z,2.38
2023-01-10T11:23:37.391Z,2.15
2023-01-10T11:27:49.781Z,2.50
2023-01-10T11:31:54.349Z,2.85
2023-01-10T11:36:08.308Z,2.47
2023-01-10T11:40:19.774Z,3.08
2023-01-10T11:44:26.892Z,3.30
2023-01-10T11:49:04.335Z,2.85
2023-01-10T11:53:06.757Z,2.80
2023-01-10T11:57:16.568Z,2.90
2023-01-10T12:01:32.797Z,3.17
2023-01-10T12:05:34.797Z,3.38
2023-01-10T12:09:45.612Z,2.83
2023-01-10T12:13:57.183Z,3.83
2023-01-10T12:18:07.222Z,2.30
2023-01-10T12:22:15.245Z,2.30
2023-01-10T12:26:17.583Z,3.42
2023-01-10T12:30:39.241Z,2.47
2023-01-10T12:34:46.266Z,2.13
2023-01-10T12:39:11.456Z,2.90
2023-01-10T12:43:38.826Z,3.25
2023-01-10T12:48:08.219Z,2.95
2023-01-10T12:52:29.525Z,2.50
2023-01-10T12:56:33.218Z,2.30
2023-01-10T13:00:47.841Z,2.42
2023-01-10T13:04:58.513Z,3.13
2023-01-10T13:09:07.485Z,2.28
2023-01-10T13:13:35.348Z,2.13
2023-01-10T13:17:47.206Z,2.55
2023-01-10T13:21:48.940Z,2.45
2023-01-10T13:26:00.577Z,2.92
2023-01-10T13:30:04.568Z,3.10
2023-01-10T13:34:11.231Z,2.45
2023-01-10T13:38:23.995Z,2.30
2023-01-10T13:46:51.707Z,2.30
2023-01-10T13:51:06.194Z,2.25
2023-01-10T13:55:36.665Z,2.67
2023-01-10T13:59:59.774Z,2.05
2023-01-10T14:04:07.467Z,2.70
2023-01-10T14:12:19.901Z,2.03
2023-01-10T14:16:32.611Z,2.75
2023-01-10T14:20:36.525Z,2.45
2023-01-10T14:24:50.743Z,2.20
2023-01-10T14:28:52.749Z,3.05
2023-01-10T14:32:58.046Z,2.97
2023-01-10T14:37:03.666Z,2.78
2023-01-10T14:41:16.447Z,2.70
2023-01-10T14:45:31.974Z,3.50
2023-01-10T14:49:36.139Z,2.85
2023-01-10T14:53:39.597Z,2.65
2023-01-10T14:57:41.168Z,3.72
2023-01-10T15:01:43.293Z,2.83
2023-01-10T15:05:51.554Z,2.87
2023-01-10T15:09:57.295Z,2.50
2023-01-10T15:14:08.298Z,2.40
2023-01-10T15:18:37.578Z,2.70
2023-01-10T15:22:39.384Z,2.10
2023-01-10T15:26:41.805Z,2.53
2023-01-10T15:30:44.523Z,2.40
2023-01-10T15:34:55.345Z,3.05
2023-01-10T15:38:57.177Z,2.58
2023-01-10T15:43:17.038Z,2.78
2023-01-10T15:47:41.420Z,2.65
2023-01-10T15:51:47.831Z,2.20
2023-01-10T15:55:53.849Z,2.33
2023-01-10T15:59:57.232Z,2.03
2023-01-10T16:04:04.739Z,2.28
2023-01-10T16:08:08.668Z,2.28
2023-01-10T16:12:43.672Z,3.20
2023-01-10T16:16:45.301Z,3.42
2023-01-10T16:20:50.793Z,2.53
2023-01-10T16:24:53.589Z,2.90
2023-01-10T16:28:55.151Z,1.80
2023-01-10T16:32:59.841Z,2.30
2023-01-10T16:37:01.420Z,2.10
2023-01-10T16:41:23.250Z,2.03
2023-01-10T16:45:24.901Z,2.30
2023-01-10T16:49:26.977Z,2.70
2023-01-10T16:53:30.488Z,2.15
2023-01-10T16:57:32.154Z,1.92
2023-01-10T17:01:38.637Z,2.60
2023-01-10T17:05:40.601Z,2.20
2023-01-10T17:09:42.146Z,2.05
2023-01-10T17:13:46.158Z,2.25
2023-01-10T17:17:48.130Z,2.28
2023-01-10T17:21:50.490Z,2.40
2023-01-10T17:25:59.254Z,2.97
2023-01-10T17:30:02.527Z,2.22
2023-01-10T17:34:04.314Z,2.13
2023-01-10T17:38:05.925Z,2.10
2023-01-10T17:42:07.523Z,1.80
2023-01-10T17:46:11.022Z,2.17
2023-01-10T17:50:13.203Z,1.83
2023-01-10T17:54:15.223Z,2.13
2023-01-10T17:58:19.111Z,1.60
2023-01-10T18:02:21.007Z,1.98
2023-01-10T18:06:24.628Z,1.83
2023-01-10T18:10:26.767Z,1.48
2023-01-10T18:14:37.538Z,1.55
2023-01-10T18:18:39.155Z,2.25
2023-01-10T18:23:02.328Z,1.55
2023-01-10T18:27:05.087Z,2.30
2023-01-10T18:31:09.086Z,1.85
2023-01-10T18:35:10.702Z,2.00
2023-01-10T18:39:12.369Z,1.63
2023-01-10T18:43:16.875Z,1.52
2023-01-10T18:47:18.485Z,2.08
2023-01-10T18:51:20.301Z,2.03
2023-01-10T18:55:21.932Z,1.77
2023-01-10T18:59:23.566Z,1.77
2023-01-10T19:03:25.496Z,1.73
2023-01-10T19:07:27.128Z,2.20
2023-01-10T19:11:29.110Z,2.30
2023-01-10T19:15:30.636Z,2.20
2023-01-10T19:19:33.859Z,1.70
2023-01-10T19:23:37.119Z,2.03
2023-01-10T19:27:38.750Z,3.25
2023-01-10T19:31:41.551Z,2.53
2023-01-10T19:39:45.289Z,2.90
2023-01-10T19:43:46.904Z,2.80
2023-01-10T19:47:49.101Z,2.45
2023-01-10T19:51:53.574Z,1.75
2023-01-10T19:56:03.703Z,2.20
2023-01-10T20:00:08.383Z,2.90
2023-01-10T20:04:15.092Z,2.20
2023-01-10T20:08:19.064Z,2.17
2023-01-10T20:12:20.640Z,2.03
2023-01-10T20:16:24.161Z,2.95
2023-01-10T20:20:26.397Z,2.28
2023-01-10T20:24:27.959Z,2.35
2023-01-10T20:28:30.581Z,2.13
2023-01-10T20:32:32.184Z,1.80
2023-01-10T20:36:35.449Z,2.08
2023-01-10T20:44:43.019Z,1.90
2023-01-10T20:48:46.167Z,1.90
2023-01-10T20:52:47.813Z,1.70
2023-01-10T20:56:49.490Z,2.38
2023-01-10T21:00:53.714Z,1.58
2023-01-10T21:04:55.364Z,2.90
2023-01-10T21:08:57.025Z,2.40
2023-01-10T21:12:58.710Z,2.75
2023-01-10T21:17:04.824Z,3.00
2023-01-10T21:21:13.821Z,2.13
2023-01-10T21:25:15.408Z,1.95
2023-01-10T21:29:17.228Z,1.98
2023-01-10T21:33:19.048Z,2.90
2023-01-10T21:37:20.911Z,2.35
2023-01-10T21:41:41.053Z,2.90
2023-01-10T21:45:42.985Z,1.73
2023-01-10T21:49:44.882Z,2.22
2023-01-10T21:53:46.437Z,2.10
2023-01-10T21:57:48.082Z,1.50
2023-01-10T22:01:49.789Z,2.15
2023-01-10T22:05:51.414Z,1.80
2023-01-10T22:09:53.924Z,1.75
2023-01-10T22:13:57.104Z,1.50
2023-01-10T22:22:40.544Z,2.13
2023-01-10T22:26:42.180Z,1.60
2023-01-10T22:30:44.147Z,1.95
2023-01-10T22:34:45.827Z,2.20
2023-01-10T22:38:48.579Z,1.60
2023-01-10T22:42:53.704Z,2.08
2023-01-10T22:46:55.943Z,1.65
2023-01-10T22:50:59.465Z,1.17
2023-01-10T22:55:01.021Z,1.52
2023-01-10T22:59:06.372Z,1.52
2023-01-10T23:03:19.817Z,1.33
2023-01-10T23:07:23.008Z,1.60
2023-01-10T23:11:26.552Z,2.10
2023-01-10T23:15:28.913Z,1.60
2023-01-10T23:19:30.663Z,1.60
2023-01-10T23:23:32.385Z,1.98
2023-01-10T23:27:33.990Z,1.98
2023-01-10T23:31:35.605Z,1.30
2023-01-10T23:35:37.182Z,1.30
2023-01-10T23:39:38.715Z,1.77
2023-01-10T23:43:40.538Z,1.73
2023-01-10T23:47:42.209Z,1.15
2023-01-10T23:51:43.826Z,1.17
2023-01-10T23:55:45.608Z,1.27
2023-01-10T23:59:47.176Z,0.98
